sensor_id;sensor_type;location;lat;lon;timestamp;temperature;humidity
24518;DHT22;12678;51.336;12.406;2023-08-07T00:00:11;16.20;99.90
24518;DHT22;12678;51.336;12.406;2023-08-07T00:02:37;16.10;99.90
24518;DHT22;12678;51.336;12.406;2023-08-07T00:05:04;16.20;99.90
24518;DHT22;12678;51.336;12.406;2023-08-07T00:07:29;16.20;99.90
24518;DHT22;12678;51.336;12.406;2023-08-07T00:09:55;16.20;99.90
24518;DHT22;12678;51.336;12.406;2023-08-07T00:12:20;16.10;99.90
24518;DHT22;12678;51.336;12.406;2023-08-07T00:14:50;16.20;99.90
24518;DHT22;12678;51.336;12.406;2023-08-07T00:17:16;16.10;99.90
24518;DHT22;12678;51.336;12.406;2023-08-07T00:19:41;16.20;99.90
24518;DHT22;12678;51.336;12.406;2023-08-07T00:22:07;16.10;99.90
24518;DHT22;12678;51.336;12.406;2023-08-07T00:24:32;16.00;99.90
24518;DHT22;12678;51.336;12.406;2023-08-07T00:26:58;16.20;99.90
24518;DHT22;12678;51.336;12.406;2023-08-07T00:29:23;16.10;99.90
24518;DHT22;12678;51.336;12.406;2023-08-07T00:31:49;16.10;99.90
24518;DHT22;12678;51.336;12.406;2023-08-07T00:34:15;16.20;99.90
24518;DHT22;12678;51.336;12.406;2023-08-07T00:36:40;16.00;99.90
24518;DHT22;12678;51.336;12.406;2023-08-07T00:39:06;15.90;99.90
24518;DHT22;12678;51.336;12.406;2023-08-07T00:41:33;16.10;99.90
24518;DHT22;12678;51.336;12.406;2023-08-07T00:43:58;16.10;99.90
24518;DHT22;12678;51.336;12.406;2023-08-07T00:46:24;16.10;99.90
24518;DHT22;12678;51.336;12.406;2023-08-07T00:48:51;16.20;99.90
24518;DHT22;12678;51.336;12.406;2023-08-07T00:51:17;16.20;99.90
24518;DHT22;12678;51.336;12.406;2023-08-07T00:53:43;16.10;99.90
24518;DHT22;12678;51.336;12.406;2023-08-07T00:56:09;16.20;99.90
24518;DHT22;12678;51.336;12.406;2023-08-07T00:58:34;16.20;99.90
24518;DHT22;12678;51.336;12.406;2023-08-07T01:01:01;16.30;99.90
24518;DHT22;12678;51.336;12.406;2023-08-07T01:03:27;16.30;99.90
24518;DHT22;12678;51.336;12.406;2023-08-07T01:05:52;16.30;99.90
24518;DHT22;12678;51.336;12.406;2023-08-07T01:08:18;16.30;99.90
24518;DHT22;12678;51.336;12.406;2023-08-07T01:13:37;16.40;99.90
24518;DHT22;12678;51.336;12.406;2023-08-07T01:16:12;16.30;99.90
24518;DHT22;12678;51.336;12.406;2023-08-07T01:18:40;16.20;99.90
24518;DHT22;12678;51.336;12.406;2023-08-07T01:21:06;16.20;99.90
24518;DHT22;12678;51.336;12.406;2023-08-07T01:23:31;16.20;99.90
24518;DHT22;12678;51.336;12.406;2023-08-07T01:25:57;16.10;99.90
24518;DHT22;12678;51.336;12.406;2023-08-07T01:28:27;16.20;99.90
24518;DHT22;12678;51.336;12.406;2023-08-07T01:31:00;16.40;99.90
24518;DHT22;12678;51.336;12.406;2023-08-07T01:33:37;16.40;99.90
24518;DHT22;12678;51.336;12.406;2023-08-07T01:36:05;16.30;99.90
24518;DHT22;12678;51.336;12.406;2023-08-07T01:38:32;16.40;99.90
24518;DHT22;12678;51.336;12.406;2023-08-07T01:41:00;16.30;99.90
24518;DHT22;12678;51.336;12.406;2023-08-07T01:43:27;16.30;99.90
24518;DHT22;12678;51.336;12.406;2023-08-07T01:45:53;16.20;99.90
24518;DHT22;12678;51.336;12.406;2023-08-07T01:48:18;16.10;99.90
24518;DHT22;12678;51.336;12.406;2023-08-07T01:50:44;16.00;99.90
24518;DHT22;12678;51.336;12.406;2023-08-07T01:53:10;16.00;99.90
24518;DHT22;12678;51.336;12.406;2023-08-07T01:55:35;16.00;99.90
24518;DHT22;12678;51.336;12.406;2023-08-07T01:58:01;16.00;99.90
24518;DHT22;12678;51.336;12.406;2023-08-07T02:00:27;15.90;99.90
24518;DHT22;12678;51.336;12.406;2023-08-07T02:02:53;15.90;99.90
24518;DHT22;12678;51.336;12.406;2023-08-07T02:05:19;15.90;99.90
24518;DHT22;12678;51.336;12.406;2023-08-07T02:07:44;16.00;99.90
24518;DHT22;12678;51.336;12.406;2023-08-07T02:10:10;15.90;99.90
24518;DHT22;12678;51.336;12.406;2023-08-07T02:12:35;15.90;99.90
24518;DHT22;12678;51.336;12.406;2023-08-07T02:15:01;15.90;99.90
24518;DHT22;12678;51.336;12.406;2023-08-07T02:17:28;16.00;99.90
24518;DHT22;12678;51.336;12.406;2023-08-07T02:19:55;16.10;99.90
24518;DHT22;12678;51.336;12.406;2023-08-07T02:22:21;16.00;99.90
24518;DHT22;12678;51.336;12.406;2023-08-07T02:24:47;16.10;99.90
24518;DHT22;12678;51.336;12.406;2023-08-07T02:27:12;16.00;99.90
24518;DHT22;12678;51.336;12.406;2023-08-07T02:29:38;16.00;99.90
24518;DHT22;12678;51.336;12.406;2023-08-07T02:32:04;15.90;99.90
24518;DHT22;12678;51.336;12.406;2023-08-07T02:34:30;15.90;99.90
24518;DHT22;12678;51.336;12.406;2023-08-07T02:36:56;15.90;99.90
24518;DHT22;12678;51.336;12.406;2023-08-07T02:39:22;15.80;99.90
24518;DHT22;12678;51.336;12.406;2023-08-07T02:41:48;15.80;99.90
24518;DHT22;12678;51.336;12.406;2023-08-07T02:44:13;15.80;99.90
24518;DHT22;12678;51.336;12.406;2023-08-07T02:46:39;15.70;99.90
24518;DHT22;12678;51.336;12.406;2023-08-07T02:49:05;15.70;99.90
24518;DHT22;12678;51.336;12.406;2023-08-07T02:51:31;15.80;99.90
24518;DHT22;12678;51.336;12.406;2023-08-07T02:53:57;15.80;99.90
24518;DHT22;12678;51.336;12.406;2023-08-07T02:56:23;15.70;99.90
24518;DHT22;12678;51.336;12.406;2023-08-07T02:58:48;15.70;99.90
24518;DHT22;12678;51.336;12.406;2023-08-07T03:01:14;15.70;99.90
24518;DHT22;12678;51.336;12.406;2023-08-07T03:03:39;15.70;99.90
24518;DHT22;12678;51.336;12.406;2023-08-07T03:06:05;15.80;99.90
24518;DHT22;12678;51.336;12.406;2023-08-07T03:08:30;15.80;99.90
24518;DHT22;12678;51.336;12.406;2023-08-07T03:10:58;15.70;99.90
24518;DHT22;12678;51.336;12.406;2023-08-07T03:13:25;15.70;99.90
24518;DHT22;12678;51.336;12.406;2023-08-07T03:15:54;15.80;99.90
24518;DHT22;12678;51.336;12.406;2023-08-07T03:18:23;15.70;99.90
24518;DHT22;12678;51.336;12.406;2023-08-07T03:20:49;15.80;99.90
24518;DHT22;12678;51.336;12.406;2023-08-07T03:23:14;15.90;99.90
24518;DHT22;12678;51.336;12.406;2023-08-07T03:25:40;15.80;99.90
24518;DHT22;12678;51.336;12.406;2023-08-07T03:28:05;16.00;99.90
24518;DHT22;12678;51.336;12.406;2023-08-07T03:30:31;16.00;99.90
24518;DHT22;12678;51.336;12.406;2023-08-07T03:32:56;16.10;99.90
24518;DHT22;12678;51.336;12.406;2023-08-07T03:35:22;16.00;99.90
24518;DHT22;12678;51.336;12.406;2023-08-07T03:37:48;16.00;99.90
24518;DHT22;12678;51.336;12.406;2023-08-07T03:40:14;15.90;99.90
24518;DHT22;12678;51.336;12.406;2023-08-07T03:42:39;16.00;99.90
24518;DHT22;12678;51.336;12.406;2023-08-07T03:45:05;16.10;99.90
24518;DHT22;12678;51.336;12.406;2023-08-07T03:47:31;16.00;99.90
24518;DHT22;12678;51.336;12.406;2023-08-07T03:49:56;16.00;99.90
24518;DHT22;12678;51.336;12.406;2023-08-07T03:52:22;15.90;99.90
24518;DHT22;12678;51.336;12.406;2023-08-07T03:54:47;16.00;99.90
24518;DHT22;12678;51.336;12.406;2023-08-07T03:57:13;16.00;99.90
24518;DHT22;12678;51.336;12.406;2023-08-07T03:59:38;16.10;99.90
24518;DHT22;12678;51.336;12.406;2023-08-07T04:02:04;16.50;99.90
24518;DHT22;12678;51.336;12.406;2023-08-07T04:04:30;17.00;99.90
24518;DHT22;12678;51.336;12.406;2023-08-07T04:06:55;17.40;99.90
24518;DHT22;12678;51.336;12.406;2023-08-07T04:09:21;17.70;99.90
24518;DHT22;12678;51.336;12.406;2023-08-07T04:11:46;17.80;99.90
24518;DHT22;12678;51.336;12.406;2023-08-07T04:14:12;17.80;99.90
24518;DHT22;12678;51.336;12.406;2023-08-07T04:16:38;18.00;99.90
24518;DHT22;12678;51.336;12.406;2023-08-07T04:19:03;18.10;99.90
24518;DHT22;12678;51.336;12.406;2023-08-07T04:21:32;18.40;99.90
24518;DHT22;12678;51.336;12.406;2023-08-07T04:23:58;18.40;99.90
24518;DHT22;12678;51.336;12.406;2023-08-07T04:26:25;18.30;99.90
24518;DHT22;12678;51.336;12.406;2023-08-07T04:28:51;18.30;99.90
24518;DHT22;12678;51.336;12.406;2023-08-07T04:31:17;18.30;99.90
24518;DHT22;12678;51.336;12.406;2023-08-07T04:33:42;18.40;99.90
24518;DHT22;12678;51.336;12.406;2023-08-07T04:36:08;18.70;99.90
24518;DHT22;12678;51.336;12.406;2023-08-07T04:38:33;18.60;99.90
24518;DHT22;12678;51.336;12.406;2023-08-07T04:40:59;18.70;99.90
24518;DHT22;12678;51.336;12.406;2023-08-07T04:43:24;18.70;99.90
24518;DHT22;12678;51.336;12.406;2023-08-07T04:45:50;18.60;99.90
24518;DHT22;12678;51.336;12.406;2023-08-07T04:48:16;18.40;99.90
24518;DHT22;12678;51.336;12.406;2023-08-07T04:50:43;18.50;99.90
24518;DHT22;12678;51.336;12.406;2023-08-07T04:53:08;18.70;99.90
24518;DHT22;12678;51.336;12.406;2023-08-07T04:55:34;18.90;99.90
24518;DHT22;12678;51.336;12.406;2023-08-07T04:57:59;18.40;99.90
24518;DHT22;12678;51.336;12.406;2023-08-07T05:00:25;17.90;99.90
24518;DHT22;12678;51.336;12.406;2023-08-07T05:02:51;17.50;99.90
24518;DHT22;12678;51.336;12.406;2023-08-07T05:05:17;17.30;99.90
24518;DHT22;12678;51.336;12.406;2023-08-07T05:07:46;17.00;99.90
24518;DHT22;12678;51.336;12.406;2023-08-07T05:10:11;17.00;99.90
24518;DHT22;12678;51.336;12.406;2023-08-07T05:12:37;17.00;99.90
24518;DHT22;12678;51.336;12.406;2023-08-07T05:15:03;17.00;99.90
24518;DHT22;12678;51.336;12.406;2023-08-07T05:17:28;16.80;99.90
24518;DHT22;12678;51.336;12.406;2023-08-07T05:19:54;16.90;99.90
24518;DHT22;12678;51.336;12.406;2023-08-07T05:22:19;16.90;99.90
24518;DHT22;12678;51.336;12.406;2023-08-07T05:24:45;16.90;99.90
24518;DHT22;12678;51.336;12.406;2023-08-07T05:27:11;16.80;99.90
24518;DHT22;12678;51.336;12.406;2023-08-07T05:29:37;16.60;99.90
24518;DHT22;12678;51.336;12.406;2023-08-07T05:32:09;16.70;99.90
24518;DHT22;12678;51.336;12.406;2023-08-07T05:34:35;16.70;99.90
24518;DHT22;12678;51.336;12.406;2023-08-07T05:37:01;16.70;99.90
24518;DHT22;12678;51.336;12.406;2023-08-07T05:39:26;16.60;99.90
24518;DHT22;12678;51.336;12.406;2023-08-07T05:41:52;16.50;99.90
24518;DHT22;12678;51.336;12.406;2023-08-07T05:44:20;16.70;99.90
24518;DHT22;12678;51.336;12.406;2023-08-07T05:46:45;16.70;99.90
24518;DHT22;12678;51.336;12.406;2023-08-07T05:49:11;16.70;99.90
24518;DHT22;12678;51.336;12.406;2023-08-07T05:51:36;16.70;99.90
24518;DHT22;12678;51.336;12.406;2023-08-07T05:54:02;16.60;99.90
24518;DHT22;12678;51.336;12.406;2023-08-07T05:56:27;16.80;99.90
24518;DHT22;12678;51.336;12.406;2023-08-07T05:58:53;16.90;99.90
24518;DHT22;12678;51.336;12.406;2023-08-07T06:01:18;17.00;99.90
24518;DHT22;12678;51.336;12.406;2023-08-07T06:03:44;17.00;99.90
24518;DHT22;12678;51.336;12.406;2023-08-07T06:06:10;17.00;99.90
24518;DHT22;12678;51.336;12.406;2023-08-07T06:08:35;17.00;99.90
24518;DHT22;12678;51.336;12.406;2023-08-07T06:11:01;17.30;99.90
24518;DHT22;12678;51.336;12.406;2023-08-07T06:13:29;17.30;99.90
24518;DHT22;12678;51.336;12.406;2023-08-07T06:15:55;17.20;99.90
24518;DHT22;12678;51.336;12.406;2023-08-07T06:18:21;17.20;99.90
24518;DHT22;12678;51.336;12.406;2023-08-07T06:20:47;17.20;99.90
24518;DHT22;12678;51.336;12.406;2023-08-07T06:23:12;16.90;99.90
24518;DHT22;12678;51.336;12.406;2023-08-07T06:25:38;16.90;99.90
24518;DHT22;12678;51.336;12.406;2023-08-07T06:28:04;16.90;99.90
24518;DHT22;12678;51.336;12.406;2023-08-07T06:30:31;17.00;99.90
24518;DHT22;12678;51.336;12.406;2023-08-07T06:32:56;16.90;99.90
24518;DHT22;12678;51.336;12.406;2023-08-07T06:35:22;17.00;99.90
24518;DHT22;12678;51.336;12.406;2023-08-07T06:37:48;16.90;99.90
24518;DHT22;12678;51.336;12.406;2023-08-07T06:40:13;17.10;99.90
24518;DHT22;12678;51.336;12.406;2023-08-07T06:42:39;17.10;99.90
24518;DHT22;12678;51.336;12.406;2023-08-07T06:45:05;17.40;99.90
24518;DHT22;12678;51.336;12.406;2023-08-07T06:47:32;17.50;99.90
24518;DHT22;12678;51.336;12.406;2023-08-07T06:49:57;17.60;99.90
24518;DHT22;12678;51.336;12.406;2023-08-07T06:52:23;17.70;99.90
24518;DHT22;12678;51.336;12.406;2023-08-07T06:54:48;18.10;99.90
24518;DHT22;12678;51.336;12.406;2023-08-07T06:57:14;18.60;99.90
24518;DHT22;12678;51.336;12.406;2023-08-07T06:59:39;19.10;99.90
24518;DHT22;12678;51.336;12.406;2023-08-07T07:02:05;19.50;99.90
24518;DHT22;12678;51.336;12.406;2023-08-07T07:04:31;19.70;99.90
24518;DHT22;12678;51.336;12.406;2023-08-07T07:06:56;19.50;99.90
24518;DHT22;12678;51.336;12.406;2023-08-07T07:09:22;19.40;99.90
24518;DHT22;12678;51.336;12.406;2023-08-07T07:11:48;19.20;99.90
24518;DHT22;12678;51.336;12.406;2023-08-07T07:14:13;19.20;99.90
24518;DHT22;12678;51.336;12.406;2023-08-07T07:16:39;19.10;99.90
24518;DHT22;12678;51.336;12.406;2023-08-07T07:19:05;19.40;99.90
24518;DHT22;12678;51.336;12.406;2023-08-07T07:21:33;19.80;99.90
24518;DHT22;12678;51.336;12.406;2023-08-07T07:24:00;19.90;99.90
24518;DHT22;12678;51.336;12.406;2023-08-07T07:26:26;19.80;99.90
24518;DHT22;12678;51.336;12.406;2023-08-07T07:28:51;19.90;99.90
24518;DHT22;12678;51.336;12.406;2023-08-07T07:31:17;19.90;99.90
24518;DHT22;12678;51.336;12.406;2023-08-07T07:33:42;19.60;99.90
24518;DHT22;12678;51.336;12.406;2023-08-07T07:36:14;19.60;99.90
24518;DHT22;12678;51.336;12.406;2023-08-07T07:38:40;19.40;99.90
24518;DHT22;12678;51.336;12.406;2023-08-07T07:41:05;19.50;99.90
24518;DHT22;12678;51.336;12.406;2023-08-07T07:43:35;19.70;99.90
24518;DHT22;12678;51.336;12.406;2023-08-07T07:46:01;19.60;99.90
24518;DHT22;12678;51.336;12.406;2023-08-07T07:48:26;19.50;99.90
24518;DHT22;12678;51.336;12.406;2023-08-07T07:51:01;19.20;99.90
24518;DHT22;12678;51.336;12.406;2023-08-07T07:53:27;19.50;99.90
24518;DHT22;12678;51.336;12.406;2023-08-07T07:55:53;19.70;99.90
24518;DHT22;12678;51.336;12.406;2023-08-07T07:58:19;20.20;99.90
24518;DHT22;12678;51.336;12.406;2023-08-07T08:00:45;20.30;99.90
24518;DHT22;12678;51.336;12.406;2023-08-07T08:03:11;20.40;99.90
24518;DHT22;12678;51.336;12.406;2023-08-07T08:05:38;20.90;99.90
24518;DHT22;12678;51.336;12.406;2023-08-07T08:08:04;21.20;99.90
24518;DHT22;12678;51.336;12.406;2023-08-07T08:10:30;21.20;99.90
24518;DHT22;12678;51.336;12.406;2023-08-07T08:12:55;21.40;99.90
24518;DHT22;12678;51.336;12.406;2023-08-07T08:15:21;21.60;99.90
24518;DHT22;12678;51.336;12.406;2023-08-07T08:17:47;21.50;99.90
24518;DHT22;12678;51.336;12.406;2023-08-07T08:20:14;21.30;99.90
24518;DHT22;12678;51.336;12.406;2023-08-07T08:22:44;21.10;99.90
24518;DHT22;12678;51.336;12.406;2023-08-07T08:25:10;21.00;99.90
24518;DHT22;12678;51.336;12.406;2023-08-07T08:27:37;21.00;99.90
24518;DHT22;12678;51.336;12.406;2023-08-07T08:30:03;20.90;99.90
24518;DHT22;12678;51.336;12.406;2023-08-07T08:32:29;21.00;99.90
24518;DHT22;12678;51.336;12.406;2023-08-07T08:34:54;20.90;99.90
24518;DHT22;12678;51.336;12.406;2023-08-07T08:37:21;20.70;99.90
24518;DHT22;12678;51.336;12.406;2023-08-07T08:39:46;20.60;99.90
24518;DHT22;12678;51.336;12.406;2023-08-07T08:42:12;20.50;99.90
24518;DHT22;12678;51.336;12.406;2023-08-07T08:44:53;20.50;99.90
24518;DHT22;12678;51.336;12.406;2023-08-07T08:47:20;20.70;99.90
24518;DHT22;12678;51.336;12.406;2023-08-07T08:49:48;20.80;99.90
24518;DHT22;12678;51.336;12.406;2023-08-07T08:52:15;20.80;99.90
24518;DHT22;12678;51.336;12.406;2023-08-07T08:54:41;21.00;99.90
24518;DHT22;12678;51.336;12.406;2023-08-07T08:57:07;21.00;99.90
24518;DHT22;12678;51.336;12.406;2023-08-07T08:59:33;21.10;99.90
24518;DHT22;12678;51.336;12.406;2023-08-07T09:01:59;21.20;99.90
24518;DHT22;12678;51.336;12.406;2023-08-07T09:04:25;21.20;99.90
24518;DHT22;12678;51.336;12.406;2023-08-07T09:06:51;21.00;99.90
24518;DHT22;12678;51.336;12.406;2023-08-07T09:09:18;20.80;99.90
24518;DHT22;12678;51.336;12.406;2023-08-07T09:11:45;20.80;99.90
24518;DHT22;12678;51.336;12.406;2023-08-07T09:14:16;20.60;99.90
24518;DHT22;12678;51.336;12.406;2023-08-07T09:16:45;20.70;99.90
24518;DHT22;12678;51.336;12.406;2023-08-07T09:19:13;20.70;99.90
24518;DHT22;12678;51.336;12.406;2023-08-07T09:21:39;20.60;99.90
24518;DHT22;12678;51.336;12.406;2023-08-07T09:24:05;20.60;99.90
24518;DHT22;12678;51.336;12.406;2023-08-07T09:26:32;20.90;99.90
24518;DHT22;12678;51.336;12.406;2023-08-07T09:28:58;21.40;99.90
24518;DHT22;12678;51.336;12.406;2023-08-07T09:31:24;21.60;99.90
24518;DHT22;12678;51.336;12.406;2023-08-07T09:34:01;22.00;99.90
24518;DHT22;12678;51.336;12.406;2023-08-07T09:36:32;22.30;99.90
24518;DHT22;12678;51.336;12.406;2023-08-07T09:39:02;22.30;99.90
24518;DHT22;12678;51.336;12.406;2023-08-07T09:41:31;22.00;99.90
24518;DHT22;12678;51.336;12.406;2023-08-07T09:43:57;21.90;99.90
24518;DHT22;12678;51.336;12.406;2023-08-07T09:46:25;22.10;99.90
24518;DHT22;12678;51.336;12.406;2023-08-07T09:48:51;22.20;99.90
24518;DHT22;12678;51.336;12.406;2023-08-07T09:51:17;22.10;99.90
24518;DHT22;12678;51.336;12.406;2023-08-07T09:53:42;22.00;99.90
24518;DHT22;12678;51.336;12.406;2023-08-07T09:56:08;21.90;99.90
24518;DHT22;12678;51.336;12.406;2023-08-07T09:58:34;21.70;99.90
24518;DHT22;12678;51.336;12.406;2023-08-07T10:01:04;21.80;99.90
24518;DHT22;12678;51.336;12.406;2023-08-07T10:03:30;21.80;99.90
24518;DHT22;12678;51.336;12.406;2023-08-07T10:05:57;21.90;99.90
24518;DHT22;12678;51.336;12.406;2023-08-07T10:08:23;21.80;99.90
24518;DHT22;12678;51.336;12.406;2023-08-07T10:10:49;21.40;99.90
24518;DHT22;12678;51.336;12.406;2023-08-07T10:13:15;21.10;99.90
24518;DHT22;12678;51.336;12.406;2023-08-07T10:15:41;21.00;99.90
24518;DHT22;12678;51.336;12.406;2023-08-07T10:18:09;20.90;99.90
24518;DHT22;12678;51.336;12.406;2023-08-07T10:20:36;20.80;99.90
24518;DHT22;12678;51.336;12.406;2023-08-07T10:23:08;20.60;99.90
24518;DHT22;12678;51.336;12.406;2023-08-07T10:25:35;20.50;99.90
24518;DHT22;12678;51.336;12.406;2023-08-07T10:28:04;20.50;99.90
24518;DHT22;12678;51.336;12.406;2023-08-07T10:30:32;20.70;99.90
24518;DHT22;12678;51.336;12.406;2023-08-07T10:32:59;20.70;99.90
24518;DHT22;12678;51.336;12.406;2023-08-07T10:35:29;20.90;99.90
24518;DHT22;12678;51.336;12.406;2023-08-07T10:37:57;21.00;99.90
24518;DHT22;12678;51.336;12.406;2023-08-07T10:40:31;20.80;99.90
24518;DHT22;12678;51.336;12.406;2023-08-07T10:45:37;21.00;99.90
24518;DHT22;12678;51.336;12.406;2023-08-07T10:48:17;20.90;99.90
24518;DHT22;12678;51.336;12.406;2023-08-07T10:53:30;20.50;99.90
24518;DHT22;12678;51.336;12.406;2023-08-07T10:55:57;20.60;99.90
24518;DHT22;12678;51.336;12.406;2023-08-07T10:58:29;20.80;99.90
24518;DHT22;12678;51.336;12.406;2023-08-07T11:03:59;21.10;99.90
24518;DHT22;12678;51.336;12.406;2023-08-07T11:06:30;21.10;99.90
24518;DHT22;12678;51.336;12.406;2023-08-07T11:09:03;21.30;99.90
24518;DHT22;12678;51.336;12.406;2023-08-07T11:11:34;21.20;99.90
24518;DHT22;12678;51.336;12.406;2023-08-07T11:14:08;21.10;99.90
24518;DHT22;12678;51.336;12.406;2023-08-07T11:16:34;20.90;99.90
24518;DHT22;12678;51.336;12.406;2023-08-07T11:19:00;20.80;99.90
24518;DHT22;12678;51.336;12.406;2023-08-07T11:21:26;20.90;99.90
24518;DHT22;12678;51.336;12.406;2023-08-07T11:23:52;20.90;99.90
24518;DHT22;12678;51.336;12.406;2023-08-07T11:26:18;20.90;99.90
24518;DHT22;12678;51.336;12.406;2023-08-07T11:28:47;21.00;99.90
24518;DHT22;12678;51.336;12.406;2023-08-07T11:31:13;21.00;99.90
24518;DHT22;12678;51.336;12.406;2023-08-07T11:33:40;20.90;99.90
24518;DHT22;12678;51.336;12.406;2023-08-07T11:36:13;21.10;99.90
24518;DHT22;12678;51.336;12.406;2023-08-07T11:38:43;21.20;99.90
24518;DHT22;12678;51.336;12.406;2023-08-07T11:41:14;21.40;99.90
24518;DHT22;12678;51.336;12.406;2023-08-07T11:43:41;21.40;99.90
24518;DHT22;12678;51.336;12.406;2023-08-07T11:46:08;21.50;99.90
24518;DHT22;12678;51.336;12.406;2023-08-07T11:48:36;21.70;99.90
24518;DHT22;12678;51.336;12.406;2023-08-07T11:51:02;21.80;99.90
24518;DHT22;12678;51.336;12.406;2023-08-07T11:53:31;21.80;99.90
24518;DHT22;12678;51.336;12.406;2023-08-07T11:56:04;21.70;99.90
24518;DHT22;12678;51.336;12.406;2023-08-07T11:58:35;21.50;99.90
24518;DHT22;12678;51.336;12.406;2023-08-07T12:01:21;21.50;99.90
24518;DHT22;12678;51.336;12.406;2023-08-07T12:03:55;21.70;99.90
24518;DHT22;12678;51.336;12.406;2023-08-07T12:06:22;21.80;99.90
24518;DHT22;12678;51.336;12.406;2023-08-07T12:08:50;21.70;99.90
24518;DHT22;12678;51.336;12.406;2023-08-07T12:11:18;21.60;99.90
24518;DHT22;12678;51.336;12.406;2023-08-07T12:13:45;21.50;99.90
24518;DHT22;12678;51.336;12.406;2023-08-07T12:16:11;21.40;99.90
24518;DHT22;12678;51.336;12.406;2023-08-07T12:18:50;21.40;99.90
24518;DHT22;12678;51.336;12.406;2023-08-07T12:21:18;21.30;99.90
24518;DHT22;12678;51.336;12.406;2023-08-07T12:23:48;21.20;99.90
24518;DHT22;12678;51.336;12.406;2023-08-07T12:26:14;21.00;99.90
24518;DHT22;12678;51.336;12.406;2023-08-07T12:28:40;21.10;99.90
24518;DHT22;12678;51.336;12.406;2023-08-07T12:31:06;21.30;99.90
24518;DHT22;12678;51.336;12.406;2023-08-07T12:33:34;21.40;99.90
24518;DHT22;12678;51.336;12.406;2023-08-07T12:36:01;21.30;99.90
24518;DHT22;12678;51.336;12.406;2023-08-07T12:38:28;21.30;99.90
24518;DHT22;12678;51.336;12.406;2023-08-07T12:40:54;21.40;99.90
24518;DHT22;12678;51.336;12.406;2023-08-07T12:43:19;21.30;99.90
24518;DHT22;12678;51.336;12.406;2023-08-07T12:45:45;21.40;99.90
24518;DHT22;12678;51.336;12.406;2023-08-07T12:48:11;21.40;99.90
24518;DHT22;12678;51.336;12.406;2023-08-07T12:50:37;21.20;99.90
24518;DHT22;12678;51.336;12.406;2023-08-07T12:53:02;21.40;99.90
24518;DHT22;12678;51.336;12.406;2023-08-07T12:55:28;21.40;99.90
24518;DHT22;12678;51.336;12.406;2023-08-07T12:57:55;21.40;99.90
24518;DHT22;12678;51.336;12.406;2023-08-07T13:00:21;21.30;99.90
24518;DHT22;12678;51.336;12.406;2023-08-07T13:02:49;21.20;99.90
24518;DHT22;12678;51.336;12.406;2023-08-07T13:05:16;20.90;99.90
24518;DHT22;12678;51.336;12.406;2023-08-07T13:07:46;21.00;99.90
24518;DHT22;12678;51.336;12.406;2023-08-07T13:10:14;20.90;99.90
24518;DHT22;12678;51.336;12.406;2023-08-07T13:12:41;20.90;99.90
24518;DHT22;12678;51.336;12.406;2023-08-07T13:15:09;20.90;99.90
24518;DHT22;12678;51.336;12.406;2023-08-07T13:17:35;20.90;99.90
24518;DHT22;12678;51.336;12.406;2023-08-07T13:20:02;20.80;99.90
24518;DHT22;12678;51.336;12.406;2023-08-07T13:22:39;20.80;99.90
24518;DHT22;12678;51.336;12.406;2023-08-07T13:25:05;21.00;99.90
24518;DHT22;12678;51.336;12.406;2023-08-07T13:27:33;21.10;99.90
24518;DHT22;12678;51.336;12.406;2023-08-07T13:29:59;21.10;99.90
24518;DHT22;12678;51.336;12.406;2023-08-07T13:32:25;21.10;99.90
24518;DHT22;12678;51.336;12.406;2023-08-07T13:34:51;20.90;99.90
24518;DHT22;12678;51.336;12.406;2023-08-07T13:37:16;20.80;99.90
24518;DHT22;12678;51.336;12.406;2023-08-07T13:39:42;20.70;99.90
24518;DHT22;12678;51.336;12.406;2023-08-07T13:42:08;20.40;99.90
24518;DHT22;12678;51.336;12.406;2023-08-07T13:44:33;20.30;99.90
24518;DHT22;12678;51.336;12.406;2023-08-07T13:46:59;19.80;99.90
24518;DHT22;12678;51.336;12.406;2023-08-07T13:49:25;19.40;99.90
24518;DHT22;12678;51.336;12.406;2023-08-07T13:51:50;19.10;99.90
24518;DHT22;12678;51.336;12.406;2023-08-07T13:54:16;19.40;99.90
24518;DHT22;12678;51.336;12.406;2023-08-07T13:56:42;19.40;99.90
24518;DHT22;12678;51.336;12.406;2023-08-07T13:59:07;19.30;99.90
24518;DHT22;12678;51.336;12.406;2023-08-07T14:01:35;19.00;99.90
24518;DHT22;12678;51.336;12.406;2023-08-07T14:04:01;18.50;99.90
24518;DHT22;12678;51.336;12.406;2023-08-07T14:06:27;18.50;99.90
24518;DHT22;12678;51.336;12.406;2023-08-07T14:08:52;18.50;99.90
24518;DHT22;12678;51.336;12.406;2023-08-07T14:11:18;18.50;99.90
24518;DHT22;12678;51.336;12.406;2023-08-07T14:13:45;18.60;99.90
24518;DHT22;12678;51.336;12.406;2023-08-07T14:16:12;18.70;99.90
24518;DHT22;12678;51.336;12.406;2023-08-07T14:18:37;19.10;99.90
24518;DHT22;12678;51.336;12.406;2023-08-07T14:21:03;19.70;99.90
24518;DHT22;12678;51.336;12.406;2023-08-07T14:23:29;20.10;99.90
24518;DHT22;12678;51.336;12.406;2023-08-07T14:25:54;20.10;99.90
24518;DHT22;12678;51.336;12.406;2023-08-07T14:28:20;19.70;99.90
24518;DHT22;12678;51.336;12.406;2023-08-07T14:30:45;19.80;99.90
24518;DHT22;12678;51.336;12.406;2023-08-07T14:33:11;19.60;99.90
24518;DHT22;12678;51.336;12.406;2023-08-07T14:35:37;19.60;99.90
24518;DHT22;12678;51.336;12.406;2023-08-07T14:38:02;19.80;99.90
24518;DHT22;12678;51.336;12.406;2023-08-07T14:40:28;19.80;99.90
24518;DHT22;12678;51.336;12.406;2023-08-07T14:42:54;19.70;99.90
24518;DHT22;12678;51.336;12.406;2023-08-07T14:45:23;19.70;99.90
24518;DHT22;12678;51.336;12.406;2023-08-07T14:47:49;19.80;99.90
24518;DHT22;12678;51.336;12.406;2023-08-07T14:50:15;19.80;99.90
24518;DHT22;12678;51.336;12.406;2023-08-07T14:52:42;19.70;99.90
24518;DHT22;12678;51.336;12.406;2023-08-07T14:55:07;19.70;99.90
24518;DHT22;12678;51.336;12.406;2023-08-07T14:57:33;19.80;99.90
24518;DHT22;12678;51.336;12.406;2023-08-07T14:59:59;19.90;99.90
24518;DHT22;12678;51.336;12.406;2023-08-07T15:02:24;19.80;99.90
24518;DHT22;12678;51.336;12.406;2023-08-07T15:04:50;19.90;99.90
24518;DHT22;12678;51.336;12.406;2023-08-07T15:07:15;20.10;99.90
24518;DHT22;12678;51.336;12.406;2023-08-07T15:09:41;20.10;99.90
24518;DHT22;12678;51.336;12.406;2023-08-07T15:12:07;20.00;99.90
24518;DHT22;12678;51.336;12.406;2023-08-07T15:14:33;20.00;99.90
24518;DHT22;12678;51.336;12.406;2023-08-07T15:16:59;20.10;99.90
24518;DHT22;12678;51.336;12.406;2023-08-07T15:19:24;20.10;99.90
24518;DHT22;12678;51.336;12.406;2023-08-07T15:21:50;20.00;99.90